sensor_id;sensor_type;location;lat;lon;timestamp;P1;durP1;ratioP1;P2;durP2;ratioP2
70426;SDS011;57872;55.432;37.248;2023-07-31T00:03:10;11.32;;;5.60;;
70426;SDS011;57872;55.432;37.248;2023-07-31T00:08:14;10.15;;;5.50;;
70426;SDS011;57872;55.432;37.248;2023-07-31T00:13:14;11.05;;;5.95;;
70426;SDS011;57872;55.432;37.248;2023-07-31T00:18:15;10.57;;;5.72;;
70426;SDS011;57872;55.432;37.248;2023-07-31T00:23:16;10.90;;;5.45;;
70426;SDS011;57872;55.432;37.248;2023-07-31T00:28:17;10.93;;;5.65;;
70426;SDS011;57872;55.432;37.248;2023-07-31T00:33:18;11.30;;;5.80;;
70426;SDS011;57872;55.432;37.248;2023-07-31T00:38:19;13.77;;;6.00;;
70426;SDS011;57872;55.432;37.248;2023-07-31T00:43:20;12.93;;;5.85;;
70426;SDS011;57872;55.432;37.248;2023-07-31T00:48:21;9.95;;;6.00;;
70426;SDS011;57872;55.432;37.248;2023-07-31T00:53:23;11.32;;;5.47;;
70426;SDS011;57872;55.432;37.248;2023-07-31T00:58:25;11.18;;;5.45;;
70426;SDS011;57872;55.432;37.248;2023-07-31T01:03:26;11.90;;;5.35;;
70426;SDS011;57872;55.432;37.248;2023-07-31T01:13:48;8.68;;;5.03;;
70426;SDS011;57872;55.432;37.248;2023-07-31T01:18:57;8.73;;;5.13;;
70426;SDS011;57872;55.432;37.248;2023-07-31T01:30:08;8.50;;;5.10;;
70426;SDS011;57872;55.432;37.248;2023-07-31T01:35:17;10.77;;;5.80;;
70426;SDS011;57872;55.432;37.248;2023-07-31T01:40:21;11.20;;;5.30;;
70426;SDS011;57872;55.432;37.248;2023-07-31T01:45:27;11.02;;;5.63;;
70426;SDS011;57872;55.432;37.248;2023-07-31T01:51:15;10.07;;;5.10;;
70426;SDS011;57872;55.432;37.248;2023-07-31T01:57:09;14.18;;;5.38;;
70426;SDS011;57872;55.432;37.248;2023-07-31T02:02:40;10.85;;;6.07;;
70426;SDS011;57872;55.432;37.248;2023-07-31T02:07:41;8.98;;;5.00;;
70426;SDS011;57872;55.432;37.248;2023-07-31T02:12:42;10.32;;;5.22;;
70426;SDS011;57872;55.432;37.248;2023-07-31T02:17:43;12.43;;;6.50;;
70426;SDS011;57872;55.432;37.248;2023-07-31T02:22:43;14.07;;;5.15;;
70426;SDS011;57872;55.432;37.248;2023-07-31T02:27:52;13.02;;;5.30;;
70426;SDS011;57872;55.432;37.248;2023-07-31T02:32:53;10.60;;;5.75;;
70426;SDS011;57872;55.432;37.248;2023-07-31T02:37:54;10.52;;;5.38;;
70426;SDS011;57872;55.432;37.248;2023-07-31T02:42:59;9.95;;;5.38;;
70426;SDS011;57872;55.432;37.248;2023-07-31T02:48:03;7.85;;;4.45;;
70426;SDS011;57872;55.432;37.248;2023-07-31T02:53:07;10.60;;;4.85;;
70426;SDS011;57872;55.432;37.248;2023-07-31T02:58:08;8.13;;;4.57;;
70426;SDS011;57872;55.432;37.248;2023-07-31T03:03:09;12.35;;;5.40;;
70426;SDS011;57872;55.432;37.248;2023-07-31T03:08:20;12.90;;;4.63;;
70426;SDS011;57872;55.432;37.248;2023-07-31T03:21:09;8.95;;;4.90;;
70426;SDS011;57872;55.432;37.248;2023-07-31T03:27:41;8.88;;;5.50;;
70426;SDS011;57872;55.432;37.248;2023-07-31T03:32:48;10.60;;;5.43;;
70426;SDS011;57872;55.432;37.248;2023-07-31T03:37:50;8.77;;;4.95;;
70426;SDS011;57872;55.432;37.248;2023-07-31T03:43:09;9.13;;;5.13;;
70426;SDS011;57872;55.432;37.248;2023-07-31T03:48:13;10.27;;;4.85;;
70426;SDS011;57872;55.432;37.248;2023-07-31T03:53:43;8.57;;;4.75;;
70426;SDS011;57872;55.432;37.248;2023-07-31T03:59:12;9.77;;;4.82;;
70426;SDS011;57872;55.432;37.248;2023-07-31T04:04:13;10.98;;;4.95;;
70426;SDS011;57872;55.432;37.248;2023-07-31T04:09:20;9.10;;;4.50;;
70426;SDS011;57872;55.432;37.248;2023-07-31T04:14:47;8.40;;;4.43;;
70426;SDS011;57872;55.432;37.248;2023-07-31T04:19:48;8.55;;;4.78;;
70426;SDS011;57872;55.432;37.248;2023-07-31T04:24:52;10.35;;;4.65;;
70426;SDS011;57872;55.432;37.248;2023-07-31T04:29:53;10.23;;;4.68;;
70426;SDS011;57872;55.432;37.248;2023-07-31T04:45:59;9.68;;;4.25;;
70426;SDS011;57872;55.432;37.248;2023-07-31T04:50:59;8.25;;;3.90;;
70426;SDS011;57872;55.432;37.248;2023-07-31T04:56:02;7.00;;;3.95;;
70426;SDS011;57872;55.432;37.248;2023-07-31T05:01:27;8.02;;;3.83;;
70426;SDS011;57872;55.432;37.248;2023-07-31T05:12:35;7.00;;;3.78;;
70426;SDS011;57872;55.432;37.248;2023-07-31T05:17:36;6.55;;;3.40;;
70426;SDS011;57872;55.432;37.248;2023-07-31T05:22:36;7.15;;;3.60;;
70426;SDS011;57872;55.432;37.248;2023-07-31T05:27:39;6.45;;;3.38;;
70426;SDS011;57872;55.432;37.248;2023-07-31T05:32:39;7.35;;;3.67;;
70426;SDS011;57872;55.432;37.248;2023-07-31T05:37:40;6.35;;;3.38;;
70426;SDS011;57872;55.432;37.248;2023-07-31T05:48:32;9.45;;;3.33;;
70426;SDS011;57872;55.432;37.248;2023-07-31T05:53:36;7.22;;;2.95;;
70426;SDS011;57872;55.432;37.248;2023-07-31T05:58:44;9.65;;;3.15;;
70426;SDS011;57872;55.432;37.248;2023-07-31T06:03:44;6.45;;;3.35;;
70426;SDS011;57872;55.432;37.248;2023-07-31T06:08:45;5.57;;;2.65;;
70426;SDS011;57872;55.432;37.248;2023-07-31T06:13:47;7.05;;;3.25;;
70426;SDS011;57872;55.432;37.248;2023-07-31T06:18:51;6.97;;;2.83;;
70426;SDS011;57872;55.432;37.248;2023-07-31T06:24:02;8.25;;;2.80;;
70426;SDS011;57872;55.432;37.248;2023-07-31T06:29:06;5.38;;;2.40;;
70426;SDS011;57872;55.432;37.248;2023-07-31T06:34:16;6.75;;;2.40;;
70426;SDS011;57872;55.432;37.248;2023-07-31T06:45:24;5.30;;;2.20;;
70426;SDS011;57872;55.432;37.248;2023-07-31T06:50:53;6.82;;;2.70;;
70426;SDS011;57872;55.432;37.248;2023-07-31T06:55:56;7.32;;;2.65;;
70426;SDS011;57872;55.432;37.248;2023-07-31T07:01:13;5.05;;;2.20;;
70426;SDS011;57872;55.432;37.248;2023-07-31T07:06:18;5.18;;;1.80;;
70426;SDS011;57872;55.432;37.248;2023-07-31T07:11:26;5.03;;;2.00;;
70426;SDS011;57872;55.432;37.248;2023-07-31T07:21:56;5.13;;;2.08;;
70426;SDS011;57872;55.432;37.248;2023-07-31T07:27:03;5.20;;;2.10;;
70426;SDS011;57872;55.432;37.248;2023-07-31T07:32:30;5.60;;;2.30;;
70426;SDS011;57872;55.432;37.248;2023-07-31T07:37:52;5.55;;;2.15;;
70426;SDS011;57872;55.432;37.248;2023-07-31T07:43:02;7.75;;;2.88;;
70426;SDS011;57872;55.432;37.248;2023-07-31T08:08:19;7.03;;;2.22;;
70426;SDS011;57872;55.432;37.248;2023-07-31T08:14:04;5.25;;;2.40;;
70426;SDS011;57872;55.432;37.248;2023-07-31T08:25:04;5.40;;;1.85;;
70426;SDS011;57872;55.432;37.248;2023-07-31T08:30:07;6.18;;;2.40;;
70426;SDS011;57872;55.432;37.248;2023-07-31T08:35:26;6.53;;;2.10;;
70426;SDS011;57872;55.432;37.248;2023-07-31T08:40:53;5.80;;;2.33;;
70426;SDS011;57872;55.432;37.248;2023-07-31T08:52:30;5.03;;;2.15;;
70426;SDS011;57872;55.432;37.248;2023-07-31T08:57:34;8.63;;;2.60;;
70426;SDS011;57872;55.432;37.248;2023-07-31T09:02:46;6.68;;;2.60;;
70426;SDS011;57872;55.432;37.248;2023-07-31T09:07:57;5.32;;;2.20;;
70426;SDS011;57872;55.432;37.248;2023-07-31T09:13:04;5.05;;;2.25;;
70426;SDS011;57872;55.432;37.248;2023-07-31T09:18:06;5.38;;;2.17;;
70426;SDS011;57872;55.432;37.248;2023-07-31T09:23:11;5.55;;;2.53;;
70426;SDS011;57872;55.432;37.248;2023-07-31T09:28:35;5.43;;;2.28;;
70426;SDS011;57872;55.432;37.248;2023-07-31T09:38:40;5.93;;;2.22;;
70426;SDS011;57872;55.432;37.248;2023-07-31T09:43:41;5.30;;;2.22;;
70426;SDS011;57872;55.432;37.248;2023-07-31T09:49:02;7.88;;;2.50;;
70426;SDS011;57872;55.432;37.248;2023-07-31T09:59:14;5.85;;;2.50;;
70426;SDS011;57872;55.432;37.248;2023-07-31T10:04:37;6.45;;;2.50;;
70426;SDS011;57872;55.432;37.248;2023-07-31T10:09:43;5.28;;;2.47;;
70426;SDS011;57872;55.432;37.248;2023-07-31T10:15:00;5.82;;;2.50;;
70426;SDS011;57872;55.432;37.248;2023-07-31T10:20:18;5.97;;;2.45;;
70426;SDS011;57872;55.432;37.248;2023-07-31T10:25:25;5.28;;;2.50;;
70426;SDS011;57872;55.432;37.248;2023-07-31T10:30:36;6.07;;;2.40;;
70426;SDS011;57872;55.432;37.248;2023-07-31T10:35:59;6.93;;;2.50;;
70426;SDS011;57872;55.432;37.248;2023-07-31T10:41:41;6.15;;;2.65;;
70426;SDS011;57872;55.432;37.248;2023-07-31T10:47:48;8.18;;;2.67;;
70426;SDS011;57872;55.432;37.248;2023-07-31T10:53:02;5.53;;;2.33;;
70426;SDS011;57872;55.432;37.248;2023-07-31T10:58:15;6.15;;;2.83;;
70426;SDS011;57872;55.432;37.248;2023-07-31T11:08:50;5.28;;;2.53;;
70426;SDS011;57872;55.432;37.248;2023-07-31T11:13:52;7.43;;;2.85;;
70426;SDS011;57872;55.432;37.248;2023-07-31T11:18:59;7.05;;;2.70;;
70426;SDS011;57872;55.432;37.248;2023-07-31T11:24:01;5.67;;;2.63;;
70426;SDS011;57872;55.432;37.248;2023-07-31T11:29:01;6.47;;;3.03;;
70426;SDS011;57872;55.432;37.248;2023-07-31T11:34:06;11.83;;;4.67;;
70426;SDS011;57872;55.432;37.248;2023-07-31T11:45:33;10.70;;;5.50;;
70426;SDS011;57872;55.432;37.248;2023-07-31T11:51:08;7.00;;;3.05;;
70426;SDS011;57872;55.432;37.248;2023-07-31T11:56:19;5.67;;;2.63;;
70426;SDS011;57872;55.432;37.248;2023-07-31T12:01:21;5.72;;;2.67;;
70426;SDS011;57872;55.432;37.248;2023-07-31T12:17:04;5.63;;;2.70;;
70426;SDS011;57872;55.432;37.248;2023-07-31T12:22:14;5.88;;;2.80;;
70426;SDS011;57872;55.432;37.248;2023-07-31T12:27:21;7.65;;;3.13;;
70426;SDS011;57872;55.432;37.248;2023-07-31T12:32:32;6.90;;;3.25;;
70426;SDS011;57872;55.432;37.248;2023-07-31T12:37:39;9.43;;;3.25;;
70426;SDS011;57872;55.432;37.248;2023-07-31T12:42:41;5.57;;;2.90;;
70426;SDS011;57872;55.432;37.248;2023-07-31T12:47:42;6.63;;;2.80;;
70426;SDS011;57872;55.432;37.248;2023-07-31T12:52:46;8.60;;;3.22;;
70426;SDS011;57872;55.432;37.248;2023-07-31T12:57:46;7.45;;;3.40;;
70426;SDS011;57872;55.432;37.248;2023-07-31T13:02:50;7.55;;;2.92;;
70426;SDS011;57872;55.432;37.248;2023-07-31T13:07:56;9.23;;;2.93;;
70426;SDS011;57872;55.432;37.248;2023-07-31T13:12:57;8.38;;;2.90;;
70426;SDS011;57872;55.432;37.248;2023-07-31T13:18:28;6.60;;;2.90;;
70426;SDS011;57872;55.432;37.248;2023-07-31T13:23:32;6.25;;;3.00;;
70426;SDS011;57872;55.432;37.248;2023-07-31T13:28:44;7.18;;;2.90;;
70426;SDS011;57872;55.432;37.248;2023-07-31T13:33:44;7.53;;;2.80;;
70426;SDS011;57872;55.432;37.248;2023-07-31T13:38:48;5.65;;;2.80;;
70426;SDS011;57872;55.432;37.248;2023-07-31T13:43:49;7.68;;;3.13;;
70426;SDS011;57872;55.432;37.248;2023-07-31T13:48:50;7.03;;;2.88;;
70426;SDS011;57872;55.432;37.248;2023-07-31T13:53:55;8.68;;;3.25;;
70426;SDS011;57872;55.432;37.248;2023-07-31T13:59:35;7.32;;;3.25;;
70426;SDS011;57872;55.432;37.248;2023-07-31T14:04:36;6.40;;;3.38;;
70426;SDS011;57872;55.432;37.248;2023-07-31T14:09:36;6.78;;;3.13;;
70426;SDS011;57872;55.432;37.248;2023-07-31T14:14:37;9.75;;;3.65;;
70426;SDS011;57872;55.432;37.248;2023-07-31T14:19:38;6.75;;;3.67;;
70426;SDS011;57872;55.432;37.248;2023-07-31T14:24:39;7.50;;;3.13;;
70426;SDS011;57872;55.432;37.248;2023-07-31T14:29:39;7.88;;;2.83;;
70426;SDS011;57872;55.432;37.248;2023-07-31T14:34:43;7.05;;;3.40;;
70426;SDS011;57872;55.432;37.248;2023-07-31T14:39:44;6.10;;;2.90;;
70426;SDS011;57872;55.432;37.248;2023-07-31T14:44:54;6.22;;;3.05;;
70426;SDS011;57872;55.432;37.248;2023-07-31T14:49:55;8.10;;;3.15;;
70426;SDS011;57872;55.432;37.248;2023-07-31T14:54:56;7.45;;;3.50;;
70426;SDS011;57872;55.432;37.248;2023-07-31T15:00:09;6.57;;;3.40;;
70426;SDS011;57872;55.432;37.248;2023-07-31T15:06:08;9.55;;;3.70;;
70426;SDS011;57872;55.432;37.248;2023-07-31T15:11:34;6.32;;;3.08;;
70426;SDS011;57872;55.432;37.248;2023-07-31T15:17:07;5.93;;;3.10;;
70426;SDS011;57872;55.432;37.248;2023-07-31T15:22:22;7.60;;;3.65;;
70426;SDS011;57872;55.432;37.248;2023-07-31T15:27:36;6.63;;;3.08;;
70426;SDS011;57872;55.432;37.248;2023-07-31T15:32:38;8.43;;;3.53;;
70426;SDS011;57872;55.432;37.248;2023-07-31T15:37:46;7.63;;;3.53;;
70426;SDS011;57872;55.432;37.248;2023-07-31T15:42:49;7.20;;;3.78;;
70426;SDS011;57872;55.432;37.248;2023-07-31T15:47:50;7.30;;;4.07;;
70426;SDS011;57872;55.432;37.248;2023-07-31T15:52:51;7.75;;;3.83;;
70426;SDS011;57872;55.432;37.248;2023-07-31T15:57:52;9.63;;;3.85;;
70426;SDS011;57872;55.432;37.248;2023-07-31T16:02:53;8.13;;;4.00;;
70426;SDS011;57872;55.432;37.248;2023-07-31T16:07:57;7.40;;;3.95;;
70426;SDS011;57872;55.432;37.248;2023-07-31T16:13:00;7.50;;;3.58;;
70426;SDS011;57872;55.432;37.248;2023-07-31T16:18:02;10.25;;;3.30;;
70426;SDS011;57872;55.432;37.248;2023-07-31T16:23:06;7.05;;;3.60;;
70426;SDS011;57872;55.432;37.248;2023-07-31T16:28:20;7.75;;;3.60;;
70426;SDS011;57872;55.432;37.248;2023-07-31T16:33:24;7.50;;;3.55;;
70426;SDS011;57872;55.432;37.248;2023-07-31T16:38:27;8.98;;;3.72;;
70426;SDS011;57872;55.432;37.248;2023-07-31T16:43:28;11.10;;;3.90;;
70426;SDS011;57872;55.432;37.248;2023-07-31T16:48:29;8.18;;;4.00;;
70426;SDS011;57872;55.432;37.248;2023-07-31T16:53:30;7.13;;;3.65;;
70426;SDS011;57872;55.432;37.248;2023-07-31T16:58:31;8.20;;;3.63;;
70426;SDS011;57872;55.432;37.248;2023-07-31T17:03:32;7.32;;;3.55;;
70426;SDS011;57872;55.432;37.248;2023-07-31T17:08:32;6.88;;;4.03;;
70426;SDS011;57872;55.432;37.248;2023-07-31T17:13:33;7.05;;;4.32;;
70426;SDS011;57872;55.432;37.248;2023-07-31T17:18:34;9.10;;;4.82;;
70426;SDS011;57872;55.432;37.248;2023-07-31T17:23:44;8.23;;;5.40;;
70426;SDS011;57872;55.432;37.248;2023-07-31T17:28:47;8.70;;;4.60;;
70426;SDS011;57872;55.432;37.248;2023-07-31T17:34:10;8.75;;;5.18;;
70426;SDS011;57872;55.432;37.248;2023-07-31T17:39:14;9.68;;;5.45;;
70426;SDS011;57872;55.432;37.248;2023-07-31T17:44:15;12.35;;;5.50;;
70426;SDS011;57872;55.432;37.248;2023-07-31T17:49:16;11.20;;;5.45;;
70426;SDS011;57872;55.432;37.248;2023-07-31T17:59:37;13.68;;;6.32;;
70426;SDS011;57872;55.432;37.248;2023-07-31T18:16:19;11.70;;;5.82;;
70426;SDS011;57872;55.432;37.248;2023-07-31T18:21:20;13.82;;;6.47;;
70426;SDS011;57872;55.432;37.248;2023-07-31T18:26:21;15.98;;;6.57;;
70426;SDS011;57872;55.432;37.248;2023-07-31T18:31:21;15.10;;;6.47;;
70426;SDS011;57872;55.432;37.248;2023-07-31T18:36:31;13.32;;;6.55;;
70426;SDS011;57872;55.432;37.248;2023-07-31T18:41:33;11.63;;;6.03;;
70426;SDS011;57872;55.432;37.248;2023-07-31T18:46:34;14.40;;;6.70;;
70426;SDS011;57872;55.432;37.248;2023-07-31T18:51:38;13.80;;;7.07;;
70426;SDS011;57872;55.432;37.248;2023-07-31T18:56:39;15.55;;;8.10;;
70426;SDS011;57872;55.432;37.248;2023-07-31T19:01:40;19.05;;;9.10;;
70426;SDS011;57872;55.432;37.248;2023-07-31T19:06:44;18.65;;;8.77;;
70426;SDS011;57872;55.432;37.248;2023-07-31T19:11:44;19.40;;;8.68;;
70426;SDS011;57872;55.432;37.248;2023-07-31T19:16:45;14.48;;;8.85;;
70426;SDS011;57872;55.432;37.248;2023-07-31T19:21:46;18.80;;;8.60;;
70426;SDS011;57872;55.432;37.248;2023-07-31T19:26:47;14.85;;;7.63;;
70426;SDS011;57872;55.432;37.248;2023-07-31T19:31:48;18.05;;;8.30;;
70426;SDS011;57872;55.432;37.248;2023-07-31T19:36:49;13.43;;;7.32;;
70426;SDS011;57872;55.432;37.248;2023-07-31T19:41:49;19.95;;;8.75;;
70426;SDS011;57872;55.432;37.248;2023-07-31T19:46:51;18.80;;;9.43;;
70426;SDS011;57872;55.432;37.248;2023-07-31T19:51:52;19.42;;;9.98;;
70426;SDS011;57872;55.432;37.248;2023-07-31T19:56:53;24.33;;;11.77;;
70426;SDS011;57872;55.432;37.248;2023-07-31T20:01:54;19.75;;;10.60;;
70426;SDS011;57872;55.432;37.248;2023-07-31T20:06:55;23.17;;;11.77;;
70426;SDS011;57872;55.432;37.248;2023-07-31T20:11:56;20.38;;;10.50;;
70426;SDS011;57872;55.432;37.248;2023-07-31T20:16:57;22.07;;;11.17;;
70426;SDS011;57872;55.432;37.248;2023-07-31T20:21:58;20.02;;;11.60;;
70426;SDS011;57872;55.432;37.248;2023-07-31T20:26:59;23.10;;;11.05;;
70426;SDS011;57872;55.432;37.248;2023-07-31T20:31:59;18.00;;;11.02;;
70426;SDS011;57872;55.432;37.248;2023-07-31T20:37:00;22.40;;;11.75;;
70426;SDS011;57872;55.432;37.248;2023-07-31T20:42:01;21.92;;;12.40;;
70426;SDS011;57872;55.432;37.248;2023-07-31T20:47:02;22.17;;;11.13;;
70426;SDS011;57872;55.432;37.248;2023-07-31T20:52:02;20.48;;;10.68;;
70426;SDS011;57872;55.432;37.248;2023-07-31T20:57:03;21.90;;;10.68;;
70426;SDS011;57872;55.432;37.248;2023-07-31T21:02:10;23.30;;;11.25;;
70426;SDS011;57872;55.432;37.248;2023-07-31T21:07:11;23.42;;;10.60;;
70426;SDS011;57872;55.432;37.248;2023-07-31T21:12:15;17.38;;;10.32;;
70426;SDS011;57872;55.432;37.248;2023-07-31T21:17:15;16.60;;;10.30;;
70426;SDS011;57872;55.432;37.248;2023-07-31T21:22:18;17.65;;;9.38;;
70426;SDS011;57872;55.432;37.248;2023-07-31T21:27:19;17.73;;;9.90;;
70426;SDS011;57872;55.432;37.248;2023-07-31T21:32:20;18.30;;;9.77;;
70426;SDS011;57872;55.432;37.248;2023-07-31T21:37:20;17.88;;;9.93;;
70426;SDS011;57872;55.432;37.248;2023-07-31T21:42:21;20.05;;;10.07;;
70426;SDS011;57872;55.432;37.248;2023-07-31T21:47:22;18.17;;;9.82;;
70426;SDS011;57872;55.432;37.248;2023-07-31T21:52:23;15.13;;;9.70;;
70426;SDS011;57872;55.432;37.248;2023-07-31T21:57:24;22.85;;;10.02;;
70426;SDS011;57872;55.432;37.248;2023-07-31T22:02:24;17.25;;;9.77;;
70426;SDS011;57872;55.432;37.248;2023-07-31T22:07:26;16.43;;;9.93;;
70426;SDS011;57872;55.432;37.248;2023-07-31T22:12:27;15.32;;;8.50;;
70426;SDS011;57872;55.432;37.248;2023-07-31T22:17:28;14.98;;;9.10;;
70426;SDS011;57872;55.432;37.248;2023-07-31T22:22:33;17.13;;;8.57;;
70426;SDS011;57872;55.432;37.248;2023-07-31T22:27:37;15.25;;;8.10;;
70426;SDS011;57872;55.432;37.248;2023-07-31T22:32:37;11.73;;;7.00;;
70426;SDS011;57872;55.432;37.248;2023-07-31T22:37:38;11.98;;;6.90;;
70426;SDS011;57872;55.432;37.248;2023-07-31T22:42:39;15.57;;;7.90;;
70426;SDS011;57872;55.432;37.248;2023-07-31T22:47:39;13.40;;;8.15;;
70426;SDS011;57872;55.432;37.248;2023-07-31T22:52:40;14.05;;;7.88;;
70426;SDS011;57872;55.432;37.248;2023-07-31T22:57:41;14.15;;;7.82;;
70426;SDS011;57872;55.432;37.248;2023-07-31T23:02:41;14.20;;;9.27;;
70426;SDS011;57872;55.432;37.248;2023-07-31T23:07:42;16.17;;;9.75;;
70426;SDS011;57872;55.432;37.248;2023-07-31T23:12:52;16.05;;;8.77;;
70426;SDS011;57872;55.432;37.248;2023-07-31T23:17:53;13.95;;;7.97;;
70426;SDS011;57872;55.432;37.248;2023-07-31T23:22:54;12.85;;;6.30;;
70426;SDS011;57872;55.432;37.248;2023-07-31T23:28:05;13.65;;;6.65;;
70426;SDS011;57872;55.432;37.248;2023-07-31T23:33:19;11.32;;;7.82;;
70426;SDS011;57872;55.432;37.248;2023-07-31T23:38:25;14.23;;;8.48;;
70426;SDS011;57872;55.432;37.248;2023-07-31T23:43:25;14.05;;;7.88;;
70426;SDS011;57872;55.432;37.248;2023-07-31T23:48:26;12.02;;;6.85;;
70426;SDS011;57872;55.432;37.248;2023-07-31T23:53:27;12.63;;;8.15;;
70426;SDS011;57872;55.432;37.248;2023-07-31T23:58:28;14.95;;;8.63;;
